Time;durP1;ratioP1;P1;durP2;ratioP2;P2;SDS_P1;SDS_P2;PMS_P1;PMS_P2;Temp;Humidity;BMP_temperature;BMP_pressure;BME280_temperature;BME280_humidity;BME280_pressure;Samples;Min_cycle;Max_cycle;Signal;HPM_P1;HPM_P2
2022/07/12 16:50:28;;;;;;;5.57;1.10;;;;;;;;;;5108000;27;20396;-61
2022/07/12 16:52:54;;;;;;;2.97;1.27;;;;;;;;;;5107887;28;20390;-61
2022/07/12 16:55:20;;;;;;;2.22;0.90;;;;;;;;;;5108212;28;20446;-62
2022/07/12 16:57:47;;;;;;;4.03;1.30;;;;;;;;;;5108596;28;20043;-61
2022/07/12 17:00:14;;;;;;;3.78;1.02;;;;;;;;;;5108055;28;20467;-61
2022/07/12 17:02:44;;;;;;;4.40;1.35;;;;;;;;;;5108421;28;20039;-63
2022/07/12 17:05:10;;;;;;;4.53;1.13;;;;;;;;;;5108989;28;20016;-66
2022/07/12 17:07:37;;;;;;;3.90;1.20;;;;;;;;;;5108540;28;20396;-60
2022/07/12 17:10:05;;;;;;;4.32;1.02;;;;;;;;;;5108805;28;20396;-64
2022/07/12 17:12:32;;;;;;;4.75;1.10;;;;;;;;;;5108583;28;20028;-61
2022/07/12 17:14:58;;;;;;;3.90;1.20;;;;;;;;;;5108527;28;20031;-60
2022/07/12 17:17:25;;;;;;;5.18;1.50;;;;;;;;;;5108208;28;20024;-61
2022/07/12 17:19:51;;;;;;;2.67;1.05;;;;;;;;;;5108043;28;20020;-62
2022/07/12 17:22:17;;;;;;;3.70;1.17;;;;;;;;;;5108085;28;20030;-64
2022/07/12 17:24:43;;;;;;;4.95;2.08;;;;;;;;;;5108129;28;20024;-63
2022/07/12 17:27:09;;;;;;;3.67;1.80;;;;;;;;;;5107936;28;20398;-64
2022/07/12 17:29:36;;;;;;;3.30;1.45;;;;;;;;;;5108107;28;20032;-64
2022/07/12 17:32:02;;;;;;;2.40;1.20;;;;;;;;;;5106872;28;20054;-60
2022/07/12 17:34:30;;;;;;;3.58;1.40;;;;;;;;;;5106920;28;20039;-62
2022/07/12 17:36:56;;;;;;;4.10;1.25;;;;;;;;;;5107642;28;20076;-65
2022/07/12 17:39:22;;;;;;;6.32;1.48;;;;;;;;;;5108304;28;20403;-62
2022/07/12 17:41:48;;;;;;;4.45;1.20;;;;;;;;;;5108036;28;20077;-63
2022/07/12 17:44:14;;;;;;;6.20;1.35;;;;;;;;;;5108033;28;20031;-63
2022/07/12 17:46:40;;;;;;;3.83;1.45;;;;;;;;;;5106648;28;20058;-63
2022/07/12 17:49:06;;;;;;;4.63;0.98;;;;;;;;;;5106242;28;20114;-61
2022/07/12 17:51:33;;;;;;;4.97;1.10;;;;;;;;;;5106967;28;20028;-61
2022/07/12 17:53:59;;;;;;;4.57;1.33;;;;;;;;;;5106766;28;20027;-60
2022/07/12 17:56:25;;;;;;;2.88;0.98;;;;;;;;;;5106279;28;20016;-62
2022/07/12 17:58:51;;;;;;;3.58;1.48;;;;;;;;;;5105113;28;20394;-62
2022/07/12 18:01:18;;;;;;;5.22;1.75;;;;;;;;;;5095629;28;20047;-63
2022/07/12 18:03:44;;;;;;;4.10;1.13;;;;;;;;;;5092849;28;20103;-62
2022/07/12 18:06:11;;;;;;;4.28;1.50;;;;;;;;;;5093067;28;20630;-62
2022/07/12 18:08:37;;;;;;;5.35;1.30;;;;;;;;;;5092759;28;20051;-62
2022/07/12 18:14:41;;;;;;;9.20;1.50;;;;;;;;;;5092329;28;20024;-61
2022/07/12 18:18:00;;;;;;;2.53;1.02;;;;;;;;;;5091580;28;20073;-62
2022/07/12 18:19:33;;;;;;;4.25;1.20;;;;;;;;;;5091639;28;20040;-61
2022/07/12 18:21:59;;;;;;;5.07;1.23;;;;;;;;;;5091593;28;20126;-61
2022/07/12 18:24:25;;;;;;;5.32;1.10;;;;;;;;;;5091861;28;20111;-61
2022/07/12 18:26:51;;;;;;;4.22;1.23;;;;;;;;;;5091183;28;20081;-62
2022/07/12 18:29:17;;;;;;;7.70;2.30;;;;;;;;;;5091445;28;20094;-62
2022/07/12 18:31:43;;;;;;;3.03;1.30;;;;;;;;;;5091497;28;20027;-62
2022/07/12 18:34:09;;;;;;;3.53;1.20;;;;;;;;;;5091472;28;20040;-62
2022/07/12 18:36:35;;;;;;;5.10;1.23;;;;;;;;;;5091304;28;20115;-62
2022/07/12 18:39:01;;;;;;;3.10;1.13;;;;;;;;;;5091300;28;20024;-62
2022/07/12 18:41:27;;;;;;;4.45;1.70;;;;;;;;;;5090802;28;20100;-62
2022/07/12 18:43:54;;;;;;;4.28;1.38;;;;;;;;;;5091206;28;20028;-62
2022/07/12 18:46:20;;;;;;;4.60;1.17;;;;;;;;;;5090880;28;20043;-62
2022/07/12 18:48:46;;;;;;;3.03;1.15;;;;;;;;;;5090693;28;20056;-62
2022/07/12 18:51:12;;;;;;;2.15;1.20;;;;;;;;;;5090965;28;20491;-62
2022/07/12 18:53:38;;;;;;;4.80;1.50;;;;;;;;;;5092537;28;20040;-62
2022/07/12 18:56:05;;;;;;;2.70;1.45;;;;;;;;;;5092994;28;20024;-62
2022/07/12 18:58:31;;;;;;;4.68;1.48;;;;;;;;;;5092836;28;20028;-62
2022/07/12 19:00:57;;;;;;;8.43;1.50;;;;;;;;;;5093469;28;20020;-61
2022/07/12 19:03:23;;;;;;;3.88;1.38;;;;;;;;;;5092919;28;20020;-61
2022/07/12 19:05:49;;;;;;;6.55;1.42;;;;;;;;;;5092815;28;20028;-61
2022/07/12 19:08:15;;;;;;;6.53;1.70;;;;;;;;;;5091810;28;20020;-61
2022/07/12 19:10:42;;;;;;;4.75;1.33;;;;;;;;;;5091552;28;20392;-61
2022/07/12 19:13:08;;;;;;;4.55;1.45;;;;;;;;;;5090584;28;20101;-62
2022/07/12 19:15:34;;;;;;;3.58;1.17;;;;;;;;;;5091489;28;20564;-61
2022/07/12 19:18:00;;;;;;;4.82;1.67;;;;;;;;;;5092664;28;20564;-62
2022/07/12 19:20:26;;;;;;;3.00;1.63;;;;;;;;;;5092482;28;20032;-61
2022/07/12 19:22:52;;;;;;;5.05;1.30;;;;;;;;;;5091750;28;20021;-61
2022/07/12 19:25:18;;;;;;;3.30;1.52;;;;;;;;;;5091192;28;20028;-62
2022/07/12 19:27:44;;;;;;;6.53;1.67;;;;;;;;;;5091051;28;20104;-61
2022/07/12 19:30:10;;;;;;;4.35;1.40;;;;;;;;;;5090981;28;20110;-60
2022/07/12 19:32:36;;;;;;;2.92;1.20;;;;;;;;;;5091349;28;20020;-62
2022/07/12 19:35:02;;;;;;;3.55;1.42;;;;;;;;;;5090987;28;20441;-62
2022/07/12 19:37:29;;;;;;;4.25;1.40;;;;;;;;;;5090900;28;20021;-62
2022/07/12 19:39:55;;;;;;;5.30;1.40;;;;;;;;;;5088440;28;20029;-62
2022/07/12 19:42:21;;;;;;;3.92;1.30;;;;;;;;;;5091021;28;20502;-62
2022/07/12 19:44:47;;;;;;;3.80;1.40;;;;;;;;;;5090873;28;20096;-61
2022/07/12 19:47:13;;;;;;;3.38;1.27;;;;;;;;;;5090909;28;20020;-62
2022/07/12 19:49:41;;;;;;;5.55;1.50;;;;;;;;;;5090358;28;20058;-62
2022/07/12 19:52:07;;;;;;;5.65;1.30;;;;;;;;;;5090567;28;20107;-62
2022/07/12 19:54:33;;;;;;;6.60;2.45;;;;;;;;;;5091289;28;20031;-62
2022/07/12 19:56:59;;;;;;;7.40;1.70;;;;;;;;;;5090809;28;20391;-62
2022/07/12 19:59:26;;;;;;;5.50;1.50;;;;;;;;;;5087966;28;20379;-62
2022/07/12 20:01:53;;;;;;;5.78;1.63;;;;;;;;;;5090608;28;20012;-62
2022/07/12 20:04:19;;;;;;;3.25;1.40;;;;;;;;;;5090668;28;20391;-61
2022/07/12 20:06:45;;;;;;;3.85;1.52;;;;;;;;;;5086504;28;20143;-61
2022/07/12 20:09:12;;;;;;;4.53;1.67;;;;;;;;;;5088584;28;20477;-62
2022/07/12 20:11:38;;;;;;;5.03;1.40;;;;;;;;;;5090901;28;20127;-61
2022/07/12 20:14:04;;;;;;;4.90;1.50;;;;;;;;;;5090959;28;20103;-64
2022/07/12 20:16:30;;;;;;;10.75;1.73;;;;;;;;;;5091828;28;20024;-62
2022/07/12 20:18:56;;;;;;;3.22;1.35;;;;;;;;;;5090928;28;20032;-64
2022/07/12 20:21:22;;;;;;;6.82;2.33;;;;;;;;;;5090944;28;20107;-63
2022/07/12 20:23:48;;;;;;;5.60;2.03;;;;;;;;;;5087686;28;20031;-63
2022/07/12 20:26:14;;;;;;;8.00;2.50;;;;;;;;;;5091077;28;20047;-60
2022/07/12 20:28:40;;;;;;;5.15;2.30;;;;;;;;;;5089754;28;20024;-60
2022/07/12 20:31:07;;;;;;;4.30;1.80;;;;;;;;;;5091528;28;20027;-62
2022/07/12 20:36:17;;;;;;;3.78;1.80;;;;;;;;;;5090303;28;20042;-62
2022/07/12 20:38:43;;;;;;;4.97;1.77;;;;;;;;;;5089777;28;20103;-63
2022/07/12 20:41:09;;;;;;;7.13;2.25;;;;;;;;;;5089907;28;20052;-64
2022/07/12 20:43:37;;;;;;;3.58;1.83;;;;;;;;;;5089786;28;20065;-60
2022/07/12 20:46:03;;;;;;;5.97;2.03;;;;;;;;;;5090341;28;20384;-61
2022/07/12 20:48:29;;;;;;;10.65;6.00;;;;;;;;;;5090661;28;20052;-60
2022/07/12 20:50:56;;;;;;;5.05;2.50;;;;;;;;;;5089740;28;20086;-61
2022/07/12 20:53:22;;;;;;;8.60;2.80;;;;;;;;;;5090641;28;20025;-61
2022/07/12 20:55:49;;;;;;;6.72;2.50;;;;;;;;;;5090172;28;20032;-61
2022/07/12 20:58:15;;;;;;;4.15;2.22;;;;;;;;;;5090108;28;20066;-63
2022/07/12 21:00:42;;;;;;;8.00;2.58;;;;;;;;;;5089545;28;20111;-61
2022/07/12 21:03:08;;;;;;;6.97;2.75;;;;;;;;;;5089906;28;20035;-63
2022/07/12 21:05:34;;;;;;;6.95;2.70;;;;;;;;;;5090344;28;20028;-64
2022/07/12 21:08:00;;;;;;;6.45;2.20;;;;;;;;;;5090740;28;20047;-64
2022/07/12 21:10:26;;;;;;;5.57;2.10;;;;;;;;;;5090984;28;20040;-60
2022/07/12 21:12:52;;;;;;;8.25;2.60;;;;;;;;;;5090947;28;20031;-60
2022/07/12 21:15:18;;;;;;;5.13;2.30;;;;;;;;;;5090999;28;20036;-60
2022/07/12 21:17:45;;;;;;;5.78;2.20;;;;;;;;;;5090811;28;20024;-60
2022/07/12 21:20:12;;;;;;;6.53;2.10;;;;;;;;;;5091080;28;20036;-59
2022/07/12 21:22:38;;;;;;;5.38;1.83;;;;;;;;;;5090346;28;20024;-59
2022/07/12 21:25:04;;;;;;;4.90;2.00;;;;;;;;;;5091171;28;20387;-61
2022/07/12 21:27:31;;;;;;;4.22;2.00;;;;;;;;;;5090377;28;20497;-60
2022/07/12 21:29:57;;;;;;;5.97;2.20;;;;;;;;;;5089388;28;20032;-65
2022/07/12 21:32:24;;;;;;;6.32;1.98;;;;;;;;;;5089233;28;20103;-62
2022/07/12 21:34:50;;;;;;;5.55;2.17;;;;;;;;;;5087973;28;20580;-61
2022/07/12 21:37:16;;;;;;;6.57;2.03;;;;;;;;;;5092596;28;20451;-62
2022/07/12 21:39:42;;;;;;;6.35;1.98;;;;;;;;;;5093774;28;20024;-61
2022/07/12 21:42:09;;;;;;;7.43;2.05;;;;;;;;;;5093293;28;20028;-60
2022/07/12 21:44:35;;;;;;;5.63;2.15;;;;;;;;;;5093151;28;20032;-62
2022/07/12 21:47:01;;;;;;;6.63;2.20;;;;;;;;;;5093652;28;20096;-62
2022/07/12 21:49:27;;;;;;;7.47;2.28;;;;;;;;;;5093063;28;20052;-60
2022/07/12 21:51:54;;;;;;;7.22;2.63;;;;;;;;;;5093997;28;20065;-61
2022/07/12 21:54:20;;;;;;;8.65;5.47;;;;;;;;;;5093543;28;20084;-61
2022/07/12 21:56:46;;;;;;;9.77;6.53;;;;;;;;;;5093972;28;20099;-62
2022/07/12 21:59:12;;;;;;;7.00;2.03;;;;;;;;;;5094240;28;20027;-62
2022/07/12 22:01:38;;;;;;;6.65;2.42;;;;;;;;;;5093400;28;20036;-60
2022/07/12 22:04:04;;;;;;;7.90;2.15;;;;;;;;;;5093355;28;20024;-61
2022/07/12 22:06:30;;;;;;;4.85;2.40;;;;;;;;;;5093603;28;20035;-61
2022/07/12 22:08:56;;;;;;;8.57;2.88;;;;;;;;;;5093456;28;20119;-59
2022/07/12 22:11:25;;;;;;;6.30;2.30;;;;;;;;;;5093158;28;20028;-61
2022/07/12 22:13:51;;;;;;;6.45;2.25;;;;;;;;;;5092513;28;20028;-62
2022/07/12 22:16:18;;;;;;;6.28;2.47;;;;;;;;;;5093247;28;20035;-60
2022/07/12 22:18:44;;;;;;;5.07;2.00;;;;;;;;;;5106266;27;20116;-59
2022/07/12 22:21:10;;;;;;;2.95;1.85;;;;;;;;;;5133134;27;20035;-62
2022/07/12 22:23:37;;;;;;;6.60;2.83;;;;;;;;;;5133889;27;20015;-66
2022/07/12 22:26:03;;;;;;;5.97;3.45;;;;;;;;;;5134301;27;20023;-63
2022/07/12 22:28:29;;;;;;;10.82;4.25;;;;;;;;;;5134401;27;20023;-59
2022/07/12 22:30:56;;;;;;;8.48;4.32;;;;;;;;;;5134173;27;20119;-62
2022/07/12 22:33:22;;;;;;;10.80;3.90;;;;;;;;;;5134287;27;20026;-59
2022/07/12 22:35:49;;;;;;;8.02;3.50;;;;;;;;;;5134442;27;20031;-61
2022/07/12 22:38:15;;;;;;;6.45;3.70;;;;;;;;;;5134249;27;20023;-58
2022/07/12 22:40:41;;;;;;;8.25;3.40;;;;;;;;;;5134620;27;20023;-59
2022/07/12 22:43:07;;;;;;;7.50;4.13;;;;;;;;;;5134462;27;20487;-62
2022/07/12 22:45:34;;;;;;;7.20;3.75;;;;;;;;;;5116052;27;20432;-67
2022/07/12 22:48:00;;;;;;;7.25;3.63;;;;;;;;;;5133905;27;20106;-60
2022/07/12 22:53:10;;;;;;;7.53;3.42;;;;;;;;;;5134541;27;20393;-72
2022/07/12 22:55:37;;;;;;;7.35;3.00;;;;;;;;;;5133847;27;20130;-59
2022/07/12 22:58:03;;;;;;;8.00;2.78;;;;;;;;;;5133746;27;20019;-59
2022/07/12 23:00:29;;;;;;;5.15;2.80;;;;;;;;;;5133650;27;20023;-60
2022/07/12 23:02:55;;;;;;;6.75;2.50;;;;;;;;;;5133922;27;20027;-61
2022/07/12 23:05:21;;;;;;;6.47;2.92;;;;;;;;;;5134823;27;20462;-73
2022/07/12 23:07:47;;;;;;;7.10;2.75;;;;;;;;;;5137007;27;20394;-61
2022/07/12 23:10:14;;;;;;;7.65;2.50;;;;;;;;;;5136079;27;20027;-60
2022/07/12 23:12:40;;;;;;;7.65;2.30;;;;;;;;;;5135210;27;20484;-65
2022/07/12 23:15:06;;;;;;;11.27;3.90;;;;;;;;;;5135491;27;20027;-62
2022/07/12 23:17:35;;;;;;;5.40;2.20;;;;;;;;;;5134618;27;20058;-61
2022/07/12 23:20:01;;;;;;;3.83;2.10;;;;;;;;;;5134757;27;20076;-73
2022/07/12 23:22:27;;;;;;;5.70;2.45;;;;;;;;;;5134831;27;20019;-60
2022/07/12 23:24:53;;;;;;;7.85;2.13;;;;;;;;;;5134737;27;20042;-63
2022/07/12 23:27:19;;;;;;;2.92;1.70;;;;;;;;;;5133828;27;20391;-60
2022/07/12 23:29:45;;;;;;;5.25;1.92;;;;;;;;;;5134129;27;20130;-60
2022/07/12 23:32:11;;;;;;;6.75;2.47;;;;;;;;;;5133375;27;20488;-60
2022/07/12 23:34:37;;;;;;;4.05;1.67;;;;;;;;;;5133634;27;20470;-76
2022/07/12 23:37:03;;;;;;;5.47;1.95;;;;;;;;;;5133397;27;20402;-63
2022/07/12 23:39:30;;;;;;;4.82;1.55;;;;;;;;;;5133681;27;20027;-62
2022/07/12 23:41:56;;;;;;;4.30;1.60;;;;;;;;;;5133425;27;20015;-73
2022/07/12 23:44:22;;;;;;;6.65;2.67;;;;;;;;;;5133372;27;20062;-58
2022/07/12 23:46:48;;;;;;;6.47;3.00;;;;;;;;;;5133054;27;20180;-59
2022/07/12 23:49:14;;;;;;;6.47;2.50;;;;;;;;;;5132667;27;20051;-61
2022/07/12 23:51:41;;;;;;;8.27;2.28;;;;;;;;;;5132763;27;20119;-65
2022/07/12 23:54:07;;;;;;;5.13;2.10;;;;;;;;;;5133152;27;20031;-69
2022/07/12 23:56:33;;;;;;;6.13;2.13;;;;;;;;;;5132750;27;20459;-60
2022/07/12 23:58:59;;;;;;;6.55;2.13;;;;;;;;;;5132308;27;20091;-60
